createdAt,value
2023-04-06T00:02:13.167Z,7.75
2023-04-06T00:05:13.077Z,7.80
2023-04-06T00:08:14.122Z,7.84
2023-04-06T00:11:14.115Z,7.89
2023-04-06T00:14:14.286Z,7.92
2023-04-06T00:17:18.093Z,7.92
2023-04-06T00:20:21.087Z,7.95
2023-04-06T00:23:21.092Z,7.99
2023-04-06T00:26:21.128Z,8.01
2023-04-06T00:29:21.097Z,8.03
2023-04-06T00:32:21.225Z,8.02
2023-04-06T00:35:22.218Z,8.02
2023-04-06T00:38:23.238Z,8.03
2023-04-06T00:41:24.200Z,8.06
2023-04-06T00:44:24.189Z,8.08
2023-04-06T00:47:25.439Z,8.10
2023-04-06T00:50:25.186Z,8.08
2023-04-06T00:53:27.208Z,8.06
2023-04-06T00:56:28.181Z,8.08
2023-04-06T00:59:28.234Z,8.05
2023-04-06T01:02:29.199Z,8.03
2023-04-06T01:05:30.223Z,8.01
2023-04-06T01:08:30.173Z,8.02
2023-04-06T01:11:59.213Z,8.02
2023-04-06T01:14:59.190Z,8.02
2023-04-06T01:18:00.227Z,8.00
2023-04-06T01:21:00.232Z,7.99
2023-04-06T01:24:00.345Z,7.97
2023-04-06T01:27:09.312Z,7.96
2023-04-06T01:30:14.203Z,7.94
2023-04-06T01:33:18.261Z,7.93
2023-04-06T01:36:30.232Z,7.93
2023-04-06T01:39:46.249Z,7.92
2023-04-06T01:42:53.260Z,7.93
2023-04-06T01:46:01.285Z,7.94
2023-04-06T01:49:03.475Z,7.96
2023-04-06T01:52:05.698Z,7.99
2023-04-06T01:55:07.243Z,8.02
2023-04-06T01:58:27.312Z,8.02
2023-04-06T02:01:27.375Z,8.03
2023-04-06T02:04:28.302Z,8.03
2023-04-06T02:07:40.327Z,8.04
2023-04-06T02:10:43.366Z,8.05
2023-04-06T02:13:50.296Z,8.07
2023-04-06T02:16:52.455Z,8.09
2023-04-06T02:19:53.311Z,8.09
2023-04-06T02:23:01.293Z,8.09
2023-04-06T02:26:01.721Z,8.08
2023-04-06T02:29:03.304Z,8.07
2023-04-06T02:32:06.711Z,8.04
2023-04-06T02:35:06.325Z,8.00
2023-04-06T02:38:08.380Z,8.01
2023-04-06T02:41:08.349Z,8.01
2023-04-06T02:44:09.350Z,8.00
2023-04-06T02:47:12.352Z,7.97
2023-04-06T02:50:14.370Z,7.95
2023-04-06T02:53:20.364Z,7.95
2023-04-06T02:56:20.463Z,7.96
2023-04-06T02:59:20.434Z,7.98
2023-04-06T03:02:27.485Z,7.99
2023-04-06T03:05:39.749Z,8.00
2023-04-06T03:08:40.486Z,8.00
2023-04-06T03:11:40.435Z,7.96
2023-04-06T03:14:41.407Z,7.96
2023-04-06T03:17:44.464Z,7.97
2023-04-06T03:21:07.497Z,7.97
2023-04-06T03:24:13.430Z,7.97
2023-04-06T03:27:13.417Z,7.96
2023-04-06T03:30:23.433Z,7.93
2023-04-06T03:33:40.472Z,7.90
2023-04-06T03:36:53.984Z,7.91
2023-04-06T03:40:03.452Z,7.91
2023-04-06T03:43:03.439Z,7.91
2023-04-06T03:46:04.485Z,7.93
2023-04-06T03:49:05.741Z,7.97
2023-04-06T03:52:06.443Z,7.98
2023-04-06T03:55:06.569Z,8.00
2023-04-06T03:58:13.484Z,8.01
2023-04-06T04:01:14.571Z,8.01
2023-04-06T04:04:15.484Z,8.04
2023-04-06T04:07:15.492Z,8.08
2023-04-06T04:10:15.508Z,8.11
2023-04-06T04:13:17.873Z,8.15
2023-04-06T04:16:24.613Z,8.21
2023-04-06T04:19:24.500Z,8.27
2023-04-06T04:22:26.559Z,8.32
2023-04-06T04:25:28.516Z,8.37
2023-04-06T04:28:28.566Z,8.41
2023-04-06T04:31:29.557Z,8.47
2023-04-06T04:34:33.538Z,8.51
2023-04-06T04:37:41.566Z,8.54
2023-04-06T04:40:44.669Z,8.55
2023-04-06T04:43:48.582Z,8.58
2023-04-06T04:46:49.661Z,8.59
2023-04-06T04:49:53.594Z,8.64
2023-04-06T04:52:54.616Z,8.67
2023-04-06T04:55:55.570Z,8.70
2023-04-06T04:58:57.626Z,8.72
2023-04-06T05:01:59.629Z,8.75
2023-04-06T05:05:07.612Z,8.78
2023-04-06T05:08:07.723Z,8.82
2023-04-06T05:11:14.649Z,8.86
2023-04-06T05:14:19.596Z,8.88
2023-04-06T05:17:20.631Z,8.91
2023-04-06T05:20:23.674Z,8.96
2023-04-06T05:23:23.627Z,8.99
2023-04-06T05:26:25.677Z,9.05
2023-04-06T05:29:28.671Z,9.10
2023-04-06T05:32:31.723Z,9.16
2023-04-06T05:35:31.709Z,9.20
2023-04-06T05:38:36.687Z,9.23
2023-04-06T05:41:45.661Z,9.30
2023-04-06T05:44:54.680Z,9.41
2023-04-06T05:47:56.903Z,9.49
2023-04-06T05:51:01.711Z,9.60
2023-04-06T05:54:11.914Z,9.69
2023-04-06T05:57:11.657Z,9.76
2023-04-06T06:00:11.744Z,9.86
2023-04-06T06:03:17.842Z,10.01
2023-04-06T06:06:19.763Z,10.16
2023-04-06T06:09:32.697Z,10.30
2023-04-06T06:12:55.095Z,10.47
2023-04-06T06:15:54.753Z,10.61
2023-04-06T06:18:55.739Z,10.73
2023-04-06T06:21:55.731Z,10.84
2023-04-06T06:24:57.767Z,10.96
2023-04-06T06:27:57.885Z,11.08
2023-04-06T06:31:17.855Z,11.22
2023-04-06T06:34:19.839Z,11.41
2023-04-06T06:37:20.837Z,11.57
2023-04-06T06:40:25.201Z,11.66
2023-04-06T06:43:28.364Z,11.66
2023-04-06T06:46:48.819Z,11.64
2023-04-06T06:49:50.040Z,11.63
2023-04-06T06:52:57.242Z,11.61
2023-04-06T06:56:02.889Z,11.65
2023-04-06T06:59:06.947Z,11.69
2023-04-06T07:02:06.858Z,11.83
2023-04-06T07:05:26.131Z,12.04
2023-04-06T07:08:28.837Z,12.17
2023-04-06T07:11:29.916Z,12.22
2023-04-06T07:14:32.858Z,12.21
2023-04-06T07:17:33.160Z,12.14
2023-04-06T07:20:35.109Z,12.02
2023-04-06T07:23:34.868Z,11.97
2023-04-06T07:26:34.865Z,11.94
2023-04-06T07:29:34.899Z,11.96
2023-04-06T07:32:42.111Z,11.99
2023-04-06T07:35:44.031Z,12.05
2023-04-06T07:38:43.861Z,12.05
2023-04-06T07:41:44.883Z,12.02
2023-04-06T07:44:49.892Z,11.95
2023-04-06T07:47:53.191Z,11.92
2023-04-06T07:50:56.166Z,11.92
2023-04-06T07:53:57.963Z,11.91
2023-04-06T07:57:00.902Z,11.93
2023-04-06T08:00:01.047Z,11.93
2023-04-06T08:03:06.035Z,12.04
2023-04-06T08:06:05.923Z,12.19
2023-04-06T08:09:06.022Z,12.41
2023-04-06T08:12:05.911Z,12.63
2023-04-06T08:15:06.986Z,12.93
2023-04-06T08:18:10.123Z,13.17
2023-04-06T08:21:09.949Z,13.30
2023-04-06T08:24:11.031Z,13.34
2023-04-06T08:27:12.337Z,13.26
2023-04-06T08:30:11.970Z,13.20
2023-04-06T08:33:12.977Z,13.22
2023-04-06T08:36:14.981Z,13.22
2023-04-06T08:39:15.979Z,13.20
2023-04-06T08:42:16.030Z,13.24
2023-04-06T08:45:19.054Z,13.33
2023-04-06T08:48:19.110Z,13.45
2023-04-06T08:51:19.099Z,13.53
2023-04-06T08:54:23.039Z,13.49
2023-04-06T08:57:24.048Z,13.34
2023-04-06T09:00:24.156Z,13.21
2023-04-06T09:03:45.156Z,13.10
2023-04-06T09:06:45.063Z,13.05
2023-04-06T09:09:50.046Z,12.98
2023-04-06T09:12:51.044Z,12.95
2023-04-06T09:15:51.090Z,12.88
2023-04-06T09:18:52.009Z,12.79
2023-04-06T09:21:53.037Z,12.72
2023-04-06T09:25:00.126Z,12.66
2023-04-06T09:28:01.087Z,12.62
2023-04-06T09:31:04.194Z,12.56
2023-04-06T09:34:04.083Z,12.49
2023-04-06T09:37:04.065Z,12.35
2023-04-06T09:40:04.154Z,12.17
2023-04-06T09:43:06.074Z,11.99
2023-04-06T09:46:06.207Z,11.84
2023-04-06T09:49:07.409Z,11.74
2023-04-06T09:52:09.170Z,11.66
2023-04-06T09:55:09.175Z,11.59
2023-04-06T09:58:14.098Z,11.52
2023-04-06T10:01:18.256Z,11.49
2023-04-06T10:04:20.306Z,11.42
2023-04-06T10:07:24.405Z,11.35
2023-04-06T10:10:30.261Z,11.27
2023-04-06T10:13:31.394Z,11.27
2023-04-06T10:16:35.297Z,11.28
2023-04-06T10:19:38.199Z,11.23
2023-04-06T10:22:47.197Z,11.25
2023-04-06T10:25:49.185Z,11.24
2023-04-06T10:28:49.175Z,11.22
2023-04-06T10:31:53.319Z,11.18
2023-04-06T10:34:54.240Z,11.19
2023-04-06T10:38:07.356Z,11.17
2023-04-06T10:41:07.184Z,11.14
2023-04-06T10:44:10.230Z,11.09
2023-04-06T10:47:14.223Z,11.03
2023-04-06T10:50:14.214Z,11.02
2023-04-06T10:53:18.452Z,11.01
2023-04-06T10:56:19.218Z,10.92
2023-04-06T10:59:21.288Z,10.87
2023-04-06T11:02:21.227Z,10.83
2023-04-06T11:05:21.232Z,10.82
2023-04-06T11:08:22.246Z,10.80
2023-04-06T11:11:27.560Z,10.80
2023-04-06T11:14:33.265Z,10.84
2023-04-06T11:17:39.275Z,10.83
2023-04-06T11:20:43.274Z,10.77
2023-04-06T11:23:46.809Z,10.74
2023-04-06T11:26:51.327Z,10.69
2023-04-06T11:29:55.279Z,10.66
2023-04-06T11:32:55.414Z,10.66
2023-04-06T11:35:55.349Z,10.72
2023-04-06T11:38:55.296Z,10.78
2023-04-06T11:42:02.377Z,10.83
2023-04-06T11:45:07.311Z,10.86
2023-04-06T11:48:09.512Z,10.85
2023-04-06T11:51:10.385Z,10.81
2023-04-06T11:54:03.470Z,10.87
2023-04-06T11:57:03.352Z,10.95
2023-04-06T12:00:04.390Z,10.99
2023-04-06T12:03:06.491Z,11.04
2023-04-06T12:06:08.385Z,11.11
2023-04-06T12:09:10.359Z,11.21
2023-04-06T12:12:10.361Z,11.31
2023-04-06T12:15:12.407Z,11.43
2023-04-06T12:18:12.397Z,11.60
2023-04-06T12:21:13.369Z,11.76
2023-04-06T12:24:14.523Z,11.93
2023-04-06T12:27:17.347Z,12.04
2023-04-06T12:30:17.379Z,12.04
2023-04-06T12:33:20.597Z,12.09
2023-04-06T12:36:28.430Z,12.16
2023-04-06T12:39:37.360Z,12.27
2023-04-06T12:42:37.444Z,12.33
2023-04-06T12:45:39.446Z,12.37
2023-04-06T12:48:39.825Z,12.42
2023-04-06T12:51:43.427Z,12.48
2023-04-06T12:54:44.472Z,12.53
2023-04-06T12:57:44.602Z,12.60
2023-04-06T13:00:45.574Z,12.63
2023-04-06T13:03:47.483Z,12.58
2023-04-06T13:06:54.578Z,12.57
2023-04-06T13:09:56.625Z,12.59
2023-04-06T13:12:58.632Z,12.61
2023-04-06T13:15:59.202Z,12.58
2023-04-06T13:18:59.467Z,12.50
2023-04-06T13:22:03.538Z,12.33
2023-04-06T13:25:03.701Z,12.24
2023-04-06T13:28:05.604Z,12.14
2023-04-06T13:31:05.607Z,11.99
2023-04-06T13:34:06.567Z,11.85
2023-04-06T13:37:07.534Z,11.74
2023-04-06T13:40:11.618Z,11.62
2023-04-06T13:43:11.618Z,11.55
2023-04-06T13:46:14.576Z,11.50
2023-04-06T13:49:14.799Z,11.41
2023-04-06T13:52:17.727Z,11.37
2023-04-06T13:55:22.752Z,11.39
2023-04-06T13:58:24.800Z,11.42
2023-04-06T14:01:24.649Z,11.44
2023-04-06T14:04:25.622Z,11.48
2023-04-06T14:07:26.713Z,11.49
2023-04-06T14:10:29.231Z,11.48
2023-04-06T14:13:31.618Z,11.47
2023-04-06T14:16:31.606Z,11.50
2023-04-06T14:19:31.547Z,11.55
2023-04-06T14:22:31.701Z,11.65
2023-04-06T14:25:31.742Z,11.68
2023-04-06T14:28:38.576Z,11.70
2023-04-06T14:31:38.706Z,11.70
2023-04-06T14:34:38.665Z,11.73
2023-04-06T14:37:38.595Z,11.78
2023-04-06T14:40:38.664Z,11.78
2023-04-06T14:43:39.634Z,11.80
2023-04-06T14:46:40.692Z,11.83
2023-04-06T14:49:41.618Z,11.90
2023-04-06T14:52:41.641Z,11.93
2023-04-06T14:55:41.691Z,11.95
2023-04-06T14:58:43.647Z,11.98
2023-04-06T15:01:43.810Z,11.97
2023-04-06T15:04:43.672Z,12.00
2023-04-06T15:07:43.874Z,12.00
2023-04-06T15:10:46.810Z,12.02
2023-04-06T15:13:49.693Z,12.00
2023-04-06T15:16:50.831Z,11.94
2023-04-06T15:19:50.695Z,11.88
2023-04-06T15:22:53.736Z,11.84
2023-04-06T15:25:46.844Z,11.83
2023-04-06T15:28:47.725Z,11.84
2023-04-06T15:31:48.768Z,11.82
2023-04-06T15:34:48.711Z,11.80
2023-04-06T15:37:48.717Z,11.76
2023-04-06T15:40:55.752Z,11.73
2023-04-06T15:43:58.718Z,11.71
2023-04-06T15:47:02.895Z,11.70
2023-04-06T15:50:02.718Z,11.65
2023-04-06T15:53:03.758Z,11.61
2023-04-06T15:56:03.818Z,11.57
2023-04-06T15:59:03.791Z,11.55
2023-04-06T16:02:03.834Z,11.50
2023-04-06T16:05:08.949Z,11.42
2023-04-06T16:08:11.795Z,11.37
2023-04-06T16:11:11.886Z,11.32
2023-04-06T16:14:12.842Z,11.29
2023-04-06T16:17:13.869Z,11.25
2023-04-06T16:20:14.774Z,11.19
2023-04-06T16:23:15.968Z,11.16
2023-04-06T16:26:27.872Z,11.11
2023-04-06T16:29:28.831Z,11.07
2023-04-06T16:32:28.862Z,11.03
2023-04-06T16:35:29.959Z,11.01
2023-04-06T16:38:35.884Z,11.00
2023-04-06T16:41:36.022Z,10.98
2023-04-06T16:44:35.838Z,10.96
2023-04-06T16:47:36.201Z,10.96
2023-04-06T16:50:35.849Z,10.96
2023-04-06T16:53:38.070Z,10.97
2023-04-06T16:56:37.910Z,10.99
2023-04-06T16:59:38.937Z,11.00
2023-04-06T17:02:42.110Z,10.95
2023-04-06T17:05:44.625Z,10.86
2023-04-06T17:09:00.061Z,10.74
2023-04-06T17:12:00.117Z,10.66
2023-04-06T17:14:59.901Z,10.60
2023-04-06T17:18:00.900Z,10.53
2023-04-06T17:21:00.900Z,10.44
2023-04-06T17:24:00.921Z,10.36
2023-04-06T17:27:02.907Z,10.32
2023-04-06T17:30:05.969Z,10.31
2023-04-06T17:33:06.961Z,10.28
2023-04-06T17:36:07.011Z,10.23
2023-04-06T17:39:07.907Z,10.20
2023-04-06T17:42:09.929Z,10.17
2023-04-06T17:45:11.921Z,10.16
2023-04-06T17:48:11.987Z,10.12
2023-04-06T17:51:11.955Z,10.09
2023-04-06T17:54:11.994Z,10.07
2023-04-06T17:57:13.960Z,10.07
2023-04-06T18:00:14.011Z,10.08
2023-04-06T18:03:23.205Z,10.08
2023-04-06T18:06:26.036Z,10.07
2023-04-06T18:12:31.990Z,10.03
2023-04-06T18:15:32.045Z,10.00
2023-04-06T18:18:34.027Z,9.97
2023-04-06T18:21:36.172Z,9.93
2023-04-06T18:24:42.271Z,9.87
2023-04-06T18:27:43.076Z,9.81
2023-04-06T18:30:43.061Z,9.79
2023-04-06T18:33:45.034Z,9.78
2023-04-06T18:36:45.129Z,9.75
2023-04-06T18:39:45.054Z,9.70
2023-04-06T18:42:45.059Z,9.67
2023-04-06T18:45:46.099Z,9.65
2023-04-06T18:48:46.605Z,9.60
2023-04-06T18:51:49.193Z,9.54
2023-04-06T18:54:51.183Z,9.50
2023-04-06T18:57:53.077Z,9.48
2023-04-06T19:00:57.110Z,9.46
2023-04-06T19:03:57.622Z,9.46
2023-04-06T19:06:59.060Z,9.42
2023-04-06T19:10:01.191Z,9.38
2023-04-06T19:13:01.145Z,9.36
2023-04-06T19:16:02.121Z,9.31
2023-04-06T19:19:06.146Z,9.28
2023-04-06T19:22:09.108Z,9.25
2023-04-06T19:25:10.175Z,9.17
2023-04-06T19:28:10.200Z,8.99
2023-04-06T19:31:10.206Z,8.86
2023-04-06T19:34:15.152Z,8.78
2023-04-06T19:37:16.171Z,8.68
2023-04-06T19:40:16.308Z,8.54
2023-04-06T19:43:16.289Z,8.39
2023-04-06T19:46:16.223Z,8.25
2023-04-06T19:49:16.124Z,8.17
2023-04-06T19:52:16.200Z,8.12
2023-04-06T19:55:17.205Z,8.05
2023-04-06T19:58:19.446Z,7.98
2023-04-06T20:01:19.409Z,7.93
2023-04-06T20:04:19.487Z,7.92
2023-04-06T20:07:19.155Z,7.89
2023-04-06T20:10:21.203Z,7.88
2023-04-06T20:13:29.601Z,7.86
2023-04-06T20:16:31.291Z,7.87
2023-04-06T20:19:32.233Z,7.87
2023-04-06T20:22:33.180Z,7.87
2023-04-06T20:25:39.199Z,7.85
2023-04-06T20:28:41.264Z,7.82
2023-04-06T20:31:44.597Z,7.78
2023-04-06T20:34:45.251Z,7.79
2023-04-06T20:37:45.228Z,7.79
2023-04-06T20:40:46.398Z,7.77
2023-04-06T20:43:49.266Z,7.70
2023-04-06T20:46:51.299Z,7.63
2023-04-06T20:49:53.343Z,7.59
2023-04-06T20:52:54.298Z,7.53
2023-04-06T20:55:55.285Z,7.49
2023-04-06T20:58:56.597Z,7.43
2023-04-06T21:01:56.361Z,7.32
2023-04-06T21:04:57.401Z,7.20
2023-04-06T21:08:01.321Z,7.10
2023-04-06T21:11:25.307Z,7.03
2023-04-06T21:14:28.236Z,6.99
2023-04-06T21:17:38.097Z,6.95
2023-04-06T21:20:47.127Z,6.88
2023-04-06T21:23:49.324Z,6.83
2023-04-06T21:26:50.309Z,6.82
2023-04-06T21:30:00.185Z,6.80
2023-04-06T21:33:02.461Z,6.78
2023-04-06T21:36:04.353Z,6.74
2023-04-06T21:39:05.451Z,6.74
2023-04-06T21:42:06.336Z,6.74
2023-04-06T21:45:06.374Z,6.72
2023-04-06T21:48:06.389Z,6.71
2023-04-06T21:51:06.409Z,6.71
2023-04-06T21:54:07.386Z,6.71
2023-04-06T21:57:07.379Z,6.70
2023-04-06T22:00:08.403Z,6.65
2023-04-06T22:03:11.527Z,6.58
2023-04-06T22:06:15.372Z,6.56
2023-04-06T22:09:15.346Z,6.55
2023-04-06T22:12:18.403Z,6.51
2023-04-06T22:15:18.406Z,6.44
2023-04-06T22:18:18.443Z,6.40
2023-04-06T22:21:18.561Z,6.35
2023-04-06T22:24:18.550Z,6.24
2023-04-06T22:27:18.481Z,6.17
2023-04-06T22:30:20.440Z,6.10
2023-04-06T22:33:25.489Z,6.03
2023-04-06T22:36:25.452Z,5.99
2023-04-06T22:39:34.430Z,5.98
2023-04-06T22:42:34.454Z,5.97
2023-04-06T22:45:35.450Z,5.98
2023-04-06T22:48:35.529Z,5.99
2023-04-06T22:51:36.485Z,5.99
2023-04-06T22:54:36.443Z,5.94
2023-04-06T22:57:36.487Z,5.88
2023-04-06T23:00:36.584Z,5.82
2023-04-06T23:03:44.646Z,5.78
2023-04-06T23:06:45.545Z,5.76
2023-04-06T23:09:45.500Z,5.71
2023-04-06T23:12:45.557Z,5.71
2023-04-06T23:15:45.636Z,5.71
2023-04-06T23:18:46.494Z,5.69
2023-04-06T23:21:46.541Z,5.67
2023-04-06T23:24:50.507Z,5.68
2023-04-06T23:27:50.583Z,5.71
2023-04-06T23:30:51.716Z,5.74
2023-04-06T23:33:53.527Z,5.73
2023-04-06T23:36:58.584Z,5.71
2023-04-06T23:39:59.558Z,5.64
2023-04-06T23:43:00.551Z,5.57
2023-04-06T23:46:01.595Z,5.58
2023-04-06T23:49:04.562Z,5.58
2023-04-06T23:52:04.526Z,5.57
2023-04-06T23:55:06.587Z,5.53
2023-04-06T23:58:06.568Z,5.49
